Time;durP1;ratioP1;P1;durP2;ratioP2;P2;SDS_P1;SDS_P2;PMS_P1;PMS_P2;Temp;Humidity;BMP_temperature;BMP_pressure;BME280_temperature;BME280_humidity;BME280_pressure;Samples;Min_cycle;Max_cycle;Signal;HPM_P1;HPM_P2
2022/01/15 00:00:03;;;;;;;18.13;11.93;;;;;;;;;;6262569;22;19992;-74
2022/01/15 00:02:31;;;;;;;21.33;12.10;;;;;;;;;;6243312;22;20023;-74
2022/01/15 00:04:57;;;;;;;20.13;12.52;;;;;;;;;;6241104;22;19993;-74
2022/01/15 00:09:58;;;;;;;20.58;12.93;;;;;;;;;;6298761;22;20016;-76
2022/01/15 00:12:24;;;;;;;21.77;12.27;;;;;;;;;;6267867;22;20326;-75
2022/01/15 00:14:53;;;;;;;20.05;12.30;;;;;;;;;;6268730;22;20007;-76
2022/01/15 00:17:46;;;;;;;20.02;12.63;;;;;;;;;;6295442;22;20003;-76
2022/01/15 00:20:09;;;;;;;17.58;11.05;;;;;;;;;;6297992;22;20027;-76
2022/01/15 00:22:35;;;;;;;19.17;11.82;;;;;;;;;;6269509;22;20010;-76
2022/01/15 00:25:04;;;;;;;18.98;11.75;;;;;;;;;;6269566;22;20026;-75
2022/01/15 00:27:30;;;;;;;21.83;12.15;;;;;;;;;;6262233;22;20012;-75
2022/01/15 00:29:56;;;;;;;20.42;13.18;;;;;;;;;;6268238;22;20031;-75
2022/01/15 00:32:25;;;;;;;23.77;13.00;;;;;;;;;;6295799;22;20051;-76
2022/01/15 00:37:34;;;;;;;20.48;12.93;;;;;;;;;;6245453;22;20026;-75
2022/01/15 00:40:02;;;;;;;19.05;11.93;;;;;;;;;;6263021;22;20015;-76
2022/01/15 00:42:29;;;;;;;21.15;13.10;;;;;;;;;;6259590;22;20007;-76
2022/01/15 00:44:57;;;;;;;22.42;12.77;;;;;;;;;;6267195;23;20035;-76
2022/01/15 00:47:25;;;;;;;19.73;12.73;;;;;;;;;;6269353;22;19999;-75
2022/01/15 00:49:52;;;;;;;20.60;12.68;;;;;;;;;;6260501;23;20022;-75
2022/01/15 00:52:18;;;;;;;21.33;13.77;;;;;;;;;;6263673;23;20004;-75
2022/01/15 00:54:44;;;;;;;22.73;13.23;;;;;;;;;;6264461;22;19995;-75
2022/01/15 00:57:10;;;;;;;22.23;13.80;;;;;;;;;;6263118;23;19996;-75
2022/01/15 00:59:36;;;;;;;19.65;12.27;;;;;;;;;;6263862;22;20022;-76
2022/01/15 01:02:02;;;;;;;21.88;11.95;;;;;;;;;;6292592;22;20000;-76
2022/01/15 01:04:28;;;;;;;20.92;13.60;;;;;;;;;;6295032;22;20028;-75
2022/01/15 01:06:54;;;;;;;21.73;13.07;;;;;;;;;;6293064;22;20014;-76
2022/01/15 01:09:23;;;;;;;19.95;12.75;;;;;;;;;;6297040;22;20029;-75
2022/01/15 01:11:57;;;;;;;21.40;13.13;;;;;;;;;;6292388;22;20007;-76
2022/01/15 01:20:07;;;;;;;20.85;13.55;;;;;;;;;;6296418;22;20018;-76
2022/01/15 01:22:55;;;;;;;19.88;13.07;;;;;;;;;;6288387;22;20006;-75
2022/01/15 01:25:22;;;;;;;19.30;12.32;;;;;;;;;;6298113;22;20506;-73
2022/01/15 01:27:52;;;;;;;18.95;12.18;;;;;;;;;;6296608;22;19999;-74
2022/01/15 01:30:26;;;;;;;20.35;12.43;;;;;;;;;;6296255;22;19987;-76
2022/01/15 01:32:58;;;;;;;;;;;;;;;;;;6292331;22;20443;-76
2022/01/15 01:35:41;;;;;;;21.45;12.68;;;;;;;;;;6292816;22;19883;-75
2022/01/15 01:38:14;;;;;;;22.60;13.15;;;;;;;;;;6292997;22;20003;-75
2022/01/15 01:40:44;;;;;;;21.80;13.10;;;;;;;;;;6293770;22;19991;-76
2022/01/15 01:45:54;;;;;;;21.27;13.50;;;;;;;;;;6305396;22;19994;-75
2022/01/15 01:48:20;;;;;;;20.77;13.40;;;;;;;;;;6297522;22;20002;-75
2022/01/15 01:50:46;;;;;;;20.67;12.75;;;;;;;;;;6295009;22;20010;-75
2022/01/15 01:53:12;;;;;;;22.17;13.35;;;;;;;;;;6290775;22;20007;-75
2022/01/15 01:55:38;;;;;;;22.10;12.93;;;;;;;;;;6291567;22;20015;-76
2022/01/15 01:58:04;;;;;;;21.70;12.88;;;;;;;;;;6293827;22;19988;-75
2022/01/15 02:00:31;;;;;;;18.45;12.95;;;;;;;;;;6290229;22;20015;-75
2022/01/15 02:02:58;;;;;;;23.63;13.45;;;;;;;;;;6291443;22;20079;-76
2022/01/15 02:05:24;;;;;;;21.88;13.50;;;;;;;;;;6292467;22;20008;-76
2022/01/15 02:07:51;;;;;;;21.30;13.25;;;;;;;;;;6292283;22;20011;-75
2022/01/15 02:10:18;;;;;;;23.25;13.95;;;;;;;;;;6295921;22;19998;-76
2022/01/15 02:12:45;;;;;;;24.20;14.48;;;;;;;;;;6298109;22;19988;-76
2022/01/15 02:15:16;;;;;;;21.67;13.93;;;;;;;;;;6299745;22;20011;-76
2022/01/15 02:17:43;;;;;;;19.77;13.40;;;;;;;;;;6291060;22;20004;-75
2022/01/15 02:25:57;;;;;;;21.90;13.43;;;;;;;;;;6294267;22;19999;-76
2022/01/15 02:28:24;;;;;;;20.55;13.85;;;;;;;;;;6294639;22;20007;-75
2022/01/15 02:30:56;;;;;;;21.70;14.15;;;;;;;;;;6294995;22;20082;-76
2022/01/15 02:33:22;;;;;;;21.98;13.55;;;;;;;;;;6296313;22;20118;-76
2022/01/15 02:35:49;;;;;;;20.08;13.38;;;;;;;;;;6296038;22;20004;-76
2022/01/15 02:38:15;;;;;;;22.48;13.43;;;;;;;;;;6295419;22;20016;-76
2022/01/15 02:40:42;;;;;;;20.77;13.32;;;;;;;;;;6289270;22;20007;-76
2022/01/15 02:43:11;;;;;;;20.10;13.13;;;;;;;;;;6296383;22;20012;-75
2022/01/15 02:45:42;;;;;;;23.92;14.20;;;;;;;;;;6297076;22;20007;-76
2022/01/15 02:48:17;;;;;;;22.15;13.20;;;;;;;;;;6299013;22;20018;-75
2022/01/15 02:50:53;;;;;;;21.67;14.15;;;;;;;;;;6293326;22;19991;-75
2022/01/15 02:53:19;;;;;;;22.92;13.32;;;;;;;;;;6295708;22;20004;-75
2022/01/15 02:55:47;;;;;;;21.60;13.82;;;;;;;;;;6298519;22;19999;-75
2022/01/15 02:58:13;;;;;;;26.52;15.70;;;;;;;;;;6297651;22;19980;-75
2022/01/15 03:00:42;;;;;;;28.67;16.80;;;;;;;;;;6297844;22;20012;-75
2022/01/15 03:03:08;;;;;;;25.50;15.07;;;;;;;;;;6301975;22;20000;-76
2022/01/15 03:05:34;;;;;;;21.25;13.82;;;;;;;;;;6292605;22;19988;-75
2022/01/15 03:08:00;;;;;;;22.70;14.43;;;;;;;;;;6303348;22;19994;-76
2022/01/15 03:10:26;;;;;;;21.48;13.57;;;;;;;;;;6301915;22;20012;-76
2022/01/15 03:12:54;;;;;;;20.33;14.25;;;;;;;;;;6303471;22;20070;-76
2022/01/15 03:15:21;;;;;;;19.55;13.30;;;;;;;;;;6302178;22;19995;-75
2022/01/15 03:17:48;;;;;;;20.58;14.00;;;;;;;;;;6301098;22;19991;-76
2022/01/15 03:20:15;;;;;;;23.13;13.80;;;;;;;;;;6298588;22;19999;-75
2022/01/15 03:22:41;;;;;;;20.77;13.90;;;;;;;;;;6298812;22;19987;-75
2022/01/15 03:25:08;;;;;;;21.75;12.80;;;;;;;;;;6306786;22;20007;-75
2022/01/15 03:27:34;;;;;;;22.83;12.85;;;;;;;;;;6302219;22;19988;-76
2022/01/15 03:30:02;;;;;;;21.38;13.70;;;;;;;;;;6302956;22;20007;-75
2022/01/15 03:32:28;;;;;;;20.42;13.13;;;;;;;;;;6294166;22;20003;-75
2022/01/15 03:34:54;;;;;;;22.58;13.20;;;;;;;;;;6295162;22;19999;-76
2022/01/15 03:37:21;;;;;;;21.60;13.52;;;;;;;;;;6292294;22;20011;-75
2022/01/15 03:39:47;;;;;;;18.38;12.63;;;;;;;;;;6294250;22;20014;-75
2022/01/15 03:42:13;;;;;;;21.30;13.95;;;;;;;;;;6293103;22;20012;-75
2022/01/15 03:44:43;;;;;;;22.70;13.68;;;;;;;;;;6298275;22;20000;-75
2022/01/15 03:47:09;;;;;;;21.83;13.13;;;;;;;;;;6306109;22;19991;-75
2022/01/15 03:49:36;;;;;;;21.20;13.52;;;;;;;;;;6304014;22;20010;-75
2022/01/15 03:52:04;;;;;;;21.88;13.40;;;;;;;;;;6277692;22;19996;-75
2022/01/15 03:54:30;;;;;;;19.98;13.65;;;;;;;;;;6272536;22;20056;-75
2022/01/15 03:56:59;;;;;;;20.48;13.07;;;;;;;;;;6256593;22;20014;-75
2022/01/15 03:59:25;;;;;;;21.77;13.95;;;;;;;;;;6294750;22;20027;-76
2022/01/15 04:01:51;;;;;;;22.75;14.95;;;;;;;;;;6241870;23;20018;-75
2022/01/15 04:04:18;;;;;;;22.83;14.52;;;;;;;;;;6235231;23;20516;-76
2022/01/15 04:06:44;;;;;;;24.48;15.00;;;;;;;;;;6266406;22;19988;-76
2022/01/15 04:09:11;;;;;;;23.73;14.77;;;;;;;;;;6236625;23;20012;-75
2022/01/15 04:11:37;;;;;;;20.92;13.95;;;;;;;;;;6260801;23;20003;-75
2022/01/15 04:14:04;;;;;;;21.70;14.38;;;;;;;;;;6270728;22;20071;-76
2022/01/15 04:16:31;;;;;;;22.08;14.50;;;;;;;;;;6264087;22;20004;-78
2022/01/15 04:18:57;;;;;;;22.85;13.55;;;;;;;;;;6264946;23;19991;-75
2022/01/15 04:21:24;;;;;;;23.65;15.48;;;;;;;;;;6269049;22;19984;-74
2022/01/15 04:23:50;;;;;;;21.20;14.15;;;;;;;;;;6241714;22;20095;-76
2022/01/15 04:26:18;;;;;;;21.60;14.65;;;;;;;;;;6268793;22;19988;-74
2022/01/15 04:28:44;;;;;;;23.90;14.88;;;;;;;;;;6275221;22;19999;-74
2022/01/15 04:31:11;;;;;;;24.90;15.05;;;;;;;;;;6273082;22;20004;-74
2022/01/15 04:33:38;;;;;;;25.63;14.90;;;;;;;;;;6274460;22;19981;-74
2022/01/15 04:36:05;;;;;;;23.80;14.43;;;;;;;;;;6275024;22;20018;-75
2022/01/15 04:38:34;;;;;;;23.85;15.05;;;;;;;;;;6233708;22;20103;-74
2022/01/15 04:41:00;;;;;;;23.50;15.05;;;;;;;;;;6299046;22;20024;-75
2022/01/15 04:43:26;;;;;;;22.67;14.32;;;;;;;;;;6277213;22;20002;-76
2022/01/15 04:45:52;;;;;;;28.30;15.93;;;;;;;;;;6273482;22;20011;-75
2022/01/15 04:48:18;;;;;;;25.15;14.93;;;;;;;;;;6294960;22;19992;-75
2022/01/15 04:50:46;;;;;;;22.50;14.15;;;;;;;;;;6294299;22;20484;-75
2022/01/15 04:53:12;;;;;;;21.58;14.85;;;;;;;;;;6297958;22;19988;-75
2022/01/15 04:55:38;;;;;;;24.38;16.08;;;;;;;;;;6298389;22;19991;-74
2022/01/15 04:58:05;;;;;;;31.85;18.63;;;;;;;;;;6294245;22;20007;-75
2022/01/15 05:00:32;;;;;;;29.30;17.92;;;;;;;;;;6286484;22;19988;-75
2022/01/15 05:02:58;;;;;;;25.98;17.05;;;;;;;;;;6239273;23;20066;-75
2022/01/15 05:05:24;;;;;;;23.83;15.23;;;;;;;;;;6268836;22;20043;-76
2022/01/15 05:07:52;;;;;;;21.77;14.55;;;;;;;;;;6254664;22;20014;-74
2022/01/15 05:10:21;;;;;;;23.70;15.05;;;;;;;;;;6295604;22;20010;-74
2022/01/15 05:12:48;;;;;;;21.63;14.40;;;;;;;;;;6297131;22;20039;-76
2022/01/15 05:15:14;;;;;;;20.88;14.35;;;;;;;;;;6268278;22;20003;-75
2022/01/15 05:17:41;;;;;;;21.25;14.55;;;;;;;;;;6296191;22;19991;-76
2022/01/15 05:20:08;;;;;;;22.80;14.82;;;;;;;;;;6296716;22;20000;-75
2022/01/15 05:22:34;;;;;;;23.88;15.25;;;;;;;;;;6298985;22;20007;-75
2022/01/15 05:25:00;;;;;;;19.83;13.75;;;;;;;;;;6268360;22;20011;-75
2022/01/15 05:27:26;;;;;;;20.83;14.27;;;;;;;;;;6300362;22;19988;-75
2022/01/15 05:29:53;;;;;;;21.40;14.57;;;;;;;;;;6268378;22;20007;-76
2022/01/15 05:32:19;;;;;;;24.48;14.38;;;;;;;;;;6292569;22;20088;-75
2022/01/15 05:34:45;;;;;;;20.75;14.18;;;;;;;;;;6296527;22;20035;-74
2022/01/15 05:37:12;;;;;;;21.20;14.48;;;;;;;;;;6267296;22;20015;-75
2022/01/15 05:39:39;;;;;;;20.20;13.95;;;;;;;;;;6266216;22;20056;-79
2022/01/15 05:43:02;;;;;;;23.02;16.08;;;;;;;;;;6304410;22;20060;-79
2022/01/15 05:45:31;;;;;;;22.38;14.55;;;;;;;;;;6261666;22;20027;-75
2022/01/15 05:47:57;;;;;;;23.45;15.23;;;;;;;;;;6237222;23;20024;-75
2022/01/15 05:50:23;;;;;;;22.88;14.80;;;;;;;;;;6263344;23;20012;-76
2022/01/15 05:52:49;;;;;;;22.92;14.27;;;;;;;;;;6240736;23;20008;-76
2022/01/15 05:55:15;;;;;;;23.70;14.60;;;;;;;;;;6268736;22;20000;-75
2022/01/15 06:02:53;;;;;;;23.17;14.82;;;;;;;;;;6261118;22;20034;-77
2022/01/15 06:05:19;;;;;;;21.42;13.85;;;;;;;;;;6240799;22;20004;-78
2022/01/15 06:07:45;;;;;;;23.08;14.77;;;;;;;;;;6238670;23;20008;-76
2022/01/15 06:10:11;;;;;;;21.83;13.98;;;;;;;;;;6239229;23;20000;-75
2022/01/15 06:12:44;;;;;;;24.15;15.07;;;;;;;;;;6242373;23;19996;-76
2022/01/15 06:15:16;;;;;;;20.17;14.43;;;;;;;;;;6269296;22;20000;-76
2022/01/15 06:17:42;;;;;;;24.13;15.52;;;;;;;;;;6261357;22;20015;-75
2022/01/15 06:20:09;;;;;;;23.17;15.00;;;;;;;;;;6271852;22;19992;-79
2022/01/15 06:22:35;;;;;;;22.90;14.68;;;;;;;;;;6237296;23;20024;-75
2022/01/15 06:25:03;;;;;;;22.20;14.70;;;;;;;;;;6261797;23;20008;-75
2022/01/15 06:27:29;;;;;;;23.73;14.43;;;;;;;;;;6273891;22;20035;-76
2022/01/15 06:30:03;;;;;;;20.15;13.88;;;;;;;;;;6244119;23;19992;-75
2022/01/15 06:32:35;;;;;;;24.15;15.85;;;;;;;;;;6221934;23;20014;-76
2022/01/15 06:37:37;;;;;;;24.17;15.60;;;;;;;;;;6239325;22;20004;-75
2022/01/15 06:40:04;;;;;;;21.67;14.65;;;;;;;;;;6266362;22;20069;-75
2022/01/15 06:42:30;;;;;;;22.40;15.30;;;;;;;;;;6258451;23;20308;-75
2022/01/15 06:44:57;;;;;;;23.15;15.65;;;;;;;;;;6230473;23;20004;-75
2022/01/15 06:47:23;;;;;;;26.25;17.20;;;;;;;;;;6235487;23;20012;-75
2022/01/15 06:49:50;;;;;;;26.70;16.45;;;;;;;;;;6262511;23;20038;-76
2022/01/15 06:52:16;;;;;;;26.13;16.85;;;;;;;;;;6262397;22;20000;-75
2022/01/15 06:54:45;;;;;;;24.20;16.20;;;;;;;;;;6268101;22;20018;-75
2022/01/15 07:00:08;;;;;;;23.30;15.18;;;;;;;;;;6228386;22;20008;-78
2022/01/15 07:02:34;;;;;;;25.13;15.30;;;;;;;;;;6246203;22;20388;-75
2022/01/15 07:05:00;;;;;;;24.63;15.13;;;;;;;;;;6273309;22;20414;-76
2022/01/15 07:07:29;;;;;;;21.75;14.93;;;;;;;;;;6290820;22;20006;-76
2022/01/15 07:10:32;;;;;;;22.48;15.27;;;;;;;;;;6269538;22;19984;-77
2022/01/15 07:12:58;;;;;;;25.15;16.63;;;;;;;;;;6263049;22;20083;-75
2022/01/15 07:15:33;;;;;;;25.92;17.75;;;;;;;;;;6293293;22;20051;-77
2022/01/15 07:18:00;;;;;;;43.65;24.75;;;;;;;;;;6289272;22;20026;-77
2022/01/15 07:20:29;;;;;;;34.30;19.83;;;;;;;;;;6261425;22;20051;-76
2022/01/15 07:23:02;;;;;;;27.60;18.15;;;;;;;;;;6236372;22;20469;-77
2022/01/15 07:25:33;;;;;;;24.65;14.80;;;;;;;;;;6212792;22;20076;-76
2022/01/15 07:28:02;;;;;;;22.88;14.15;;;;;;;;;;6293952;22;19996;-77
2022/01/15 07:30:51;;;;;;;24.50;15.15;;;;;;;;;;6295341;22;20076;-77
2022/01/15 07:33:19;;;;;;;38.88;20.13;;;;;;;;;;6263705;22;20015;-77
2022/01/15 07:35:52;;;;;;;33.75;23.90;;;;;;;;;;6291326;22;20032;-77
2022/01/15 07:38:30;;;;;;;30.23;19.65;;;;;;;;;;6267496;22;20004;-78
2022/01/15 07:40:59;;;;;;;26.23;17.45;;;;;;;;;;6292243;22;20000;-75
2022/01/15 07:43:26;;;;;;;25.13;18.38;;;;;;;;;;6284873;22;20501;-77
2022/01/15 07:45:52;;;;;;;28.85;20.42;;;;;;;;;;6286797;22;20004;-76
2022/01/15 07:48:28;;;;;;;27.33;19.13;;;;;;;;;;6287140;22;20007;-77
2022/01/15 07:51:19;;;;;;;25.90;16.42;;;;;;;;;;6287866;22;20426;-78
2022/01/15 07:59:05;;;;;;;25.92;17.42;;;;;;;;;;6278040;22;20054;-77
2022/01/15 08:02:02;;;;;;;23.38;16.38;;;;;;;;;;6299674;22;20019;-79
2022/01/15 08:04:37;;;;;;;23.23;16.40;;;;;;;;;;6290075;22;20375;-76
2022/01/15 08:07:04;;;;;;;25.27;16.42;;;;;;;;;;6282700;22;20020;-77
2022/01/15 08:09:34;;;;;;;23.65;16.08;;;;;;;;;;6289338;22;20007;-76
2022/01/15 08:12:00;;;;;;;23.60;15.93;;;;;;;;;;6237185;22;19999;-78
2022/01/15 08:14:27;;;;;;;24.45;15.75;;;;;;;;;;6206692;23;20012;-77
2022/01/15 08:16:53;;;;;;;22.40;15.93;;;;;;;;;;6201938;23;20096;-77
2022/01/15 08:19:19;;;;;;;26.75;16.20;;;;;;;;;;6204171;23;20005;-78
2022/01/15 08:21:47;;;;;;;24.20;16.60;;;;;;;;;;6190647;23;20004;-78
2022/01/15 08:24:20;;;;;;;25.67;15.52;;;;;;;;;;6229780;22;20020;-77
2022/01/15 08:26:52;;;;;;;24.98;16.95;;;;;;;;;;6180092;23;20009;-76
2022/01/15 08:29:19;;;;;;;26.58;15.77;;;;;;;;;;6230901;23;20067;-76
2022/01/15 08:31:47;;;;;;;24.13;17.23;;;;;;;;;;6218791;23;20009;-76
2022/01/15 08:34:15;;;;;;;27.73;18.60;;;;;;;;;;6197182;23;20004;-78
2022/01/15 08:36:45;;;;;;;22.77;14.65;;;;;;;;;;6234047;23;20431;-77
2022/01/15 08:39:14;;;;;;;37.70;23.95;;;;;;;;;;6233119;23;20004;-78
2022/01/15 08:41:40;;;;;;;27.25;20.13;;;;;;;;;;6209238;23;20032;-78
2022/01/15 08:44:08;;;;;;;22.95;15.88;;;;;;;;;;6184610;23;20043;-78
2022/01/15 08:46:35;;;;;;;20.75;15.65;;;;;;;;;;6224029;23;20051;-79
2022/01/15 08:49:01;;;;;;;41.75;26.98;;;;;;;;;;6233663;23;20004;-77
2022/01/15 08:51:27;;;;;;;26.17;17.13;;;;;;;;;;6206876;23;19988;-77
2022/01/15 08:53:53;;;;;;;27.17;18.90;;;;;;;;;;6234069;23;20438;-77
2022/01/15 08:56:23;;;;;;;21.90;15.77;;;;;;;;;;6208043;23;20470;-79
2022/01/15 08:58:49;;;;;;;24.23;16.60;;;;;;;;;;6234446;23;20004;-77
2022/01/15 09:01:15;;;;;;;22.15;15.43;;;;;;;;;;6257018;22;20016;-79
2022/01/15 09:03:42;;;;;;;30.80;20.50;;;;;;;;;;6327556;22;20011;-78
2022/01/15 09:06:08;;;;;;;211.35;92.25;;;;;;;;;;6301118;22;20066;-79
2022/01/15 09:08:34;;;;;;;77.63;41.88;;;;;;;;;;6299057;22;20006;-78
2022/01/15 09:11:02;;;;;;;99.65;51.35;;;;;;;;;;6299784;22;20013;-79
2022/01/15 09:13:29;;;;;;;72.22;39.70;;;;;;;;;;6328251;22;19996;-77
2022/01/15 09:15:56;;;;;;;25.63;19.02;;;;;;;;;;6332174;22;19984;-77
2022/01/15 09:18:26;;;;;;;31.10;21.80;;;;;;;;;;6330030;22;19983;-78
2022/01/15 09:20:52;;;;;;;25.00;16.58;;;;;;;;;;6293056;22;20007;-71
2022/01/15 09:23:18;;;;;;;23.00;16.92;;;;;;;;;;6322924;22;20084;-70
2022/01/15 09:25:44;;;;;;;30.90;18.45;;;;;;;;;;6322600;22;19979;-73
2022/01/15 09:30:55;;;;;;;25.45;17.30;;;;;;;;;;6319517;22;20018;-72
2022/01/15 09:33:23;;;;;;;22.27;16.27;;;;;;;;;;6317682;22;19999;-78
2022/01/15 09:35:49;;;;;;;27.95;16.92;;;;;;;;;;6288906;22;20325;-72
2022/01/15 09:38:15;;;;;;;25.73;18.50;;;;;;;;;;6315931;22;19999;-74
2022/01/15 09:40:41;;;;;;;28.67;18.83;;;;;;;;;;6293599;22;20033;-72
2022/01/15 09:43:08;;;;;;;25.80;18.08;;;;;;;;;;6320525;22;19991;-72
2022/01/15 09:45:35;;;;;;;25.52;15.63;;;;;;;;;;6321514;22;20003;-69
2022/01/15 09:48:07;;;;;;;24.40;17.08;;;;;;;;;;6316678;22;19995;-70
2022/01/15 09:50:35;;;;;;;26.88;19.35;;;;;;;;;;6321969;22;20026;-69
2022/01/15 09:53:03;;;;;;;25.85;18.80;;;;;;;;;;6295008;22;20003;-70
2022/01/15 09:55:29;;;;;;;24.77;17.27;;;;;;;;;;6325124;22;20055;-69
2022/01/15 09:57:55;;;;;;;25.50;17.92;;;;;;;;;;6311501;22;20052;-71
2022/01/15 10:00:22;;;;;;;25.73;18.05;;;;;;;;;;6307611;22;20010;-70
2022/01/15 10:02:49;;;;;;;26.83;19.08;;;;;;;;;;6307811;22;20057;-75
2022/01/15 10:05:16;;;;;;;25.58;19.23;;;;;;;;;;6309140;22;20087;-75
2022/01/15 10:07:57;;;;;;;22.33;17.48;;;;;;;;;;6309384;22;20007;-71
2022/01/15 10:10:24;;;;;;;27.52;16.77;;;;;;;;;;6308244;22;20000;-74
2022/01/15 10:12:50;;;;;;;30.80;17.67;;;;;;;;;;6282176;22;20073;-77
2022/01/15 10:15:25;;;;;;;29.83;17.75;;;;;;;;;;6308467;22;20000;-73
2022/01/15 10:17:51;;;;;;;28.80;19.05;;;;;;;;;;6279738;22;20010;-72
2022/01/15 10:20:22;;;;;;;26.00;17.45;;;;;;;;;;6308074;22;20015;-73
2022/01/15 10:22:59;;;;;;;23.95;17.33;;;;;;;;;;6280134;22;20329;-72
2022/01/15 10:25:26;;;;;;;26.50;17.67;;;;;;;;;;6306941;22;20090;-74
2022/01/15 10:27:54;;;;;;;25.20;18.50;;;;;;;;;;6279657;22;20003;-72
2022/01/15 10:30:26;;;;;;;25.73;18.15;;;;;;;;;;6307055;22;20004;-75
2022/01/15 10:32:54;;;;;;;23.88;16.58;;;;;;;;;;6279701;22;20007;-73
2022/01/15 10:35:20;;;;;;;24.10;18.02;;;;;;;;;;6308178;22;20007;-74
2022/01/15 10:37:49;;;;;;;25.30;17.85;;;;;;;;;;6280440;22;20005;-72
2022/01/15 10:40:16;;;;;;;31.25;19.63;;;;;;;;;;6308895;22;20003;-74
2022/01/15 10:42:42;;;;;;;25.02;16.88;;;;;;;;;;6310024;22;20028;-73
2022/01/15 10:45:12;;;;;;;23.70;17.95;;;;;;;;;;6284322;22;20010;-73
2022/01/15 10:47:43;;;;;;;33.42;22.42;;;;;;;;;;6310254;22;19999;-75
2022/01/15 10:50:10;;;;;;;26.48;17.33;;;;;;;;;;6281560;22;20014;-72
2022/01/15 10:52:36;;;;;;;30.73;19.63;;;;;;;;;;6282343;22;20014;-71
2022/01/15 10:55:18;;;;;;;26.85;17.83;;;;;;;;;;6309209;22;20433;-73
2022/01/15 10:57:53;;;;;;;27.48;20.50;;;;;;;;;;6282353;22;20008;-70
2022/01/15 11:00:20;;;;;;;25.38;18.05;;;;;;;;;;6308526;22;19999;-71
2022/01/15 11:02:50;;;;;;;25.95;18.40;;;;;;;;;;6308553;22;20038;-71
2022/01/15 11:05:25;;;;;;;25.25;17.95;;;;;;;;;;6308702;22;20027;-73
2022/01/15 11:07:55;;;;;;;59.90;39.28;;;;;;;;;;6281894;22;20052;-71
2022/01/15 11:10:21;;;;;;;31.55;21.35;;;;;;;;;;6308617;22;19998;-71
2022/01/15 11:12:47;;;;;;;23.58;17.27;;;;;;;;;;6308858;22;20003;-71
2022/01/15 11:15:16;;;;;;;25.10;17.83;;;;;;;;;;6308520;22;20078;-71
2022/01/15 11:17:43;;;;;;;26.65;18.48;;;;;;;;;;6308855;22;20334;-72
2022/01/15 11:20:11;;;;;;;27.95;17.45;;;;;;;;;;6309647;22;20398;-70
2022/01/15 11:22:38;;;;;;;25.75;17.75;;;;;;;;;;6308138;22;20007;-72
2022/01/15 11:25:04;;;;;;;21.15;15.70;;;;;;;;;;6308498;22;20003;-72
2022/01/15 11:27:30;;;;;;;22.13;15.77;;;;;;;;;;6308765;22;20078;-71
2022/01/15 11:29:58;;;;;;;21.45;15.65;;;;;;;;;;6309634;22;20084;-73
2022/01/15 11:32:26;;;;;;;25.70;16.25;;;;;;;;;;6309442;22;20007;-72
2022/01/15 11:34:59;;;;;;;24.55;16.73;;;;;;;;;;6309120;22;20007;-72
2022/01/15 11:37:25;;;;;;;20.50;15.02;;;;;;;;;;6308969;22;19995;-72
2022/01/15 11:40:14;;;;;;;20.70;15.45;;;;;;;;;;6309530;22;20429;-71
2022/01/15 11:42:43;;;;;;;22.42;17.05;;;;;;;;;;6309487;22;20049;-73
2022/01/15 11:45:32;;;;;;;21.23;15.93;;;;;;;;;;6310264;22;20030;-70
2022/01/15 11:48:20;;;;;;;22.20;15.30;;;;;;;;;;6323487;22;19999;-76
2022/01/15 11:51:06;;;;;;;25.85;17.52;;;;;;;;;;6288112;22;20014;-72
2022/01/15 11:53:45;;;;;;;22.23;14.88;;;;;;;;;;6312744;22;20068;-75
2022/01/15 11:56:30;;;;;;;26.33;15.38;;;;;;;;;;6284523;22;20132;-76
2022/01/15 11:58:58;;;;;;;25.52;17.63;;;;;;;;;;6249249;23;20004;-70
2022/01/15 12:01:59;;;;;;;28.08;19.38;;;;;;;;;;6250852;23;20446;-70
2022/01/15 12:04:38;;;;;;;22.67;16.67;;;;;;;;;;6216970;23;20020;-75
2022/01/15 12:10:37;;;;;;;27.58;18.67;;;;;;;;;;6125314;23;20433;-75
2022/01/15 12:13:10;;;;;;;25.52;19.00;;;;;;;;;;6128867;23;20028;-73
2022/01/15 12:16:36;;;;;;;19.95;14.52;;;;;;;;;;6069941;23;20019;-73
2022/01/15 12:19:22;;;;;;;21.23;14.85;;;;;;;;;;6073772;23;20014;-75
2022/01/15 12:21:52;;;;;;;27.17;15.32;;;;;;;;;;6041271;23;20062;-74
2022/01/15 12:24:39;;;;;;;25.27;16.48;;;;;;;;;;6048057;23;20027;-71
2022/01/15 12:27:10;;;;;;;26.02;16.10;;;;;;;;;;6051953;23;20003;-70
2022/01/15 12:29:47;;;;;;;28.33;18.05;;;;;;;;;;6027049;23;20478;-77
2022/01/15 12:32:41;;;;;;;23.73;16.35;;;;;;;;;;6024940;23;20018;-71
2022/01/15 12:35:56;;;;;;;26.08;16.10;;;;;;;;;;6036545;23;20086;-72
2022/01/15 12:38:27;;;;;;;28.80;17.45;;;;;;;;;;6018200;23;20016;-72
2022/01/15 12:41:01;;;;;;;28.45;19.05;;;;;;;;;;6021125;23;20509;-71
2022/01/15 12:43:31;;;;;;;30.33;19.02;;;;;;;;;;5996624;23;20076;-73
2022/01/15 12:45:59;;;;;;;24.98;16.23;;;;;;;;;;6019160;23;20016;-74
2022/01/15 12:51:46;;;;;;;;;;;;;;;;;;;;;
2022/01/15 12:54:12;;;;;;;22.40;15.45;;;;;;;;;;6163655;23;20111;-76
2022/01/15 12:56:39;;;;;;;24.55;16.17;;;;;;;;;;6208795;23;20055;-76
2022/01/15 12:59:05;;;;;;;21.95;14.55;;;;;;;;;;6214364;23;20001;-73
2022/01/15 13:01:33;;;;;;;23.63;15.15;;;;;;;;;;6189223;23;20327;-75
2022/01/15 13:04:10;;;;;;;21.80;15.65;;;;;;;;;;6213064;23;20017;-74
2022/01/15 13:06:37;;;;;;;23.98;16.13;;;;;;;;;;6187730;23;20016;-72
2022/01/15 13:09:05;;;;;;;21.70;15.05;;;;;;;;;;6214184;23;20004;-74
2022/01/15 13:11:35;;;;;;;24.55;15.98;;;;;;;;;;6217568;23;20004;-75
2022/01/15 13:14:07;;;;;;;21.60;14.85;;;;;;;;;;6206572;22;20095;-75
2022/01/15 13:16:33;;;;;;;20.67;14.43;;;;;;;;;;6284501;22;20003;-75
2022/01/15 13:19:06;;;;;;;21.67;14.20;;;;;;;;;;6286867;22;20004;-76
2022/01/15 13:21:35;;;;;;;27.70;14.57;;;;;;;;;;6285318;22;20008;-77
2022/01/15 13:24:08;;;;;;;21.40;14.75;;;;;;;;;;6282206;22;20406;-77
2022/01/15 13:26:35;;;;;;;22.65;14.90;;;;;;;;;;6285506;22;20026;-76
2022/01/15 13:29:03;;;;;;;20.30;14.35;;;;;;;;;;6284789;22;20008;-77
2022/01/15 13:31:34;;;;;;;23.17;13.82;;;;;;;;;;6283698;22;20010;-76
2022/01/15 13:34:08;;;;;;;20.45;13.98;;;;;;;;;;6283630;22;20010;-76
2022/01/15 13:36:34;;;;;;;22.63;13.98;;;;;;;;;;6281625;22;19999;-76
2022/01/15 13:39:00;;;;;;;18.50;12.98;;;;;;;;;;6283066;22;20012;-77
2022/01/15 13:41:30;;;;;;;23.42;13.48;;;;;;;;;;6282879;22;20003;-77
2022/01/15 13:44:03;;;;;;;17.92;13.90;;;;;;;;;;6260371;22;20023;-76
2022/01/15 13:46:34;;;;;;;19.50;13.82;;;;;;;;;;6284326;22;20003;-76
2022/01/15 13:49:04;;;;;;;80.28;48.38;;;;;;;;;;6281371;22;20007;-76
2022/01/15 13:54:17;;;;;;;25.85;17.52;;;;;;;;;;6285538;22;20052;-75
2022/01/15 13:56:51;;;;;;;23.33;15.60;;;;;;;;;;6285961;22;20407;-76
2022/01/15 13:59:22;;;;;;;24.77;15.85;;;;;;;;;;6285263;22;20050;-77
2022/01/15 14:01:56;;;;;;;35.67;21.30;;;;;;;;;;6284045;22;20015;-78
2022/01/15 14:04:28;;;;;;;26.45;14.60;;;;;;;;;;6284399;22;20063;-77
2022/01/15 14:06:55;;;;;;;21.02;12.90;;;;;;;;;;6283564;22;20056;-77
2022/01/15 14:09:21;;;;;;;20.05;13.02;;;;;;;;;;6286842;22;19996;-77
2022/01/15 14:11:58;;;;;;;25.15;16.38;;;;;;;;;;6284577;22;20012;-77
2022/01/15 14:14:24;;;;;;;21.83;14.52;;;;;;;;;;6287154;22;20074;-77
2022/01/15 14:16:55;;;;;;;30.00;14.73;;;;;;;;;;6285133;22;19999;-77
2022/01/15 14:22:35;;;;;;;26.10;15.13;;;;;;;;;;6300173;22;20365;-77
2022/01/15 14:25:12;;;;;;;20.58;13.40;;;;;;;;;;6135842;23;20097;-77
2022/01/15 14:27:38;;;;;;;22.90;12.35;;;;;;;;;;6132163;23;20081;-78
2022/01/15 14:30:05;;;;;;;19.88;11.77;;;;;;;;;;6134774;23;20030;-78
2022/01/15 14:32:32;;;;;;;26.45;13.60;;;;;;;;;;6133497;23;20465;-78
2022/01/15 14:34:58;;;;;;;19.17;11.20;;;;;;;;;;6109379;23;20009;-78
2022/01/15 14:37:26;;;;;;;27.50;17.08;;;;;;;;;;6132436;23;20088;-78
2022/01/15 14:39:53;;;;;;;51.20;29.67;;;;;;;;;;6108003;23;20002;-78
2022/01/15 14:42:19;;;;;;;159.75;76.43;;;;;;;;;;6109423;23;20017;-78
2022/01/15 14:44:46;;;;;;;69.25;39.90;;;;;;;;;;6134217;23;20018;-78
2022/01/15 14:47:13;;;;;;;33.13;18.60;;;;;;;;;;6108962;23;20013;-77
2022/01/15 14:49:39;;;;;;;22.77;15.43;;;;;;;;;;6133413;23;20006;-77
2022/01/15 14:52:08;;;;;;;19.30;13.90;;;;;;;;;;6133428;23;20055;-78
2022/01/15 14:54:34;;;;;;;20.08;12.88;;;;;;;;;;6110304;23;20393;-77
2022/01/15 14:57:00;;;;;;;21.00;14.93;;;;;;;;;;6111925;23;20090;-78
2022/01/15 14:59:26;;;;;;;19.73;13.43;;;;;;;;;;6241081;22;20003;-77
2022/01/15 15:01:52;;;;;;;23.70;14.00;;;;;;;;;;6284300;22;20012;-77
2022/01/15 15:04:19;;;;;;;24.30;14.10;;;;;;;;;;6286151;22;20061;-77
2022/01/15 15:06:45;;;;;;;28.77;18.42;;;;;;;;;;6285017;22;20007;-77
2022/01/15 15:09:11;;;;;;;27.77;16.02;;;;;;;;;;6283874;22;20010;-77
2022/01/15 15:11:37;;;;;;;31.52;19.23;;;;;;;;;;6281553;22;20004;-77
2022/01/15 15:14:04;;;;;;;26.45;16.17;;;;;;;;;;6283290;22;20015;-77
2022/01/15 15:16:31;;;;;;;27.60;15.73;;;;;;;;;;6282479;22;20007;-77
2022/01/15 15:18:57;;;;;;;25.50;15.50;;;;;;;;;;6281536;22;20032;-77
2022/01/15 15:21:23;;;;;;;28.23;18.30;;;;;;;;;;6283066;22;19995;-78